Time,TemperatureF,DewpointF,PressureIn,WindDirection,WindDirectionDegrees,WindSpeedMPH,WindSpeedGustMPH,Humidity,HourlyPrecipIn,Conditions,Clouds,dailyrainin,SoftwareType,DateUTC
2013-08-28 00:01:00,71.9,69.8,30.04,SE,135,0.0,0.0,93,0.00,,---,0.00,VWS V14.01,2013-08-28 05:01:00,
2013-08-28 00:06:00,71.8,69.7,30.04,SE,135,0.0,0.0,93,0.00,,---,0.00,VWS V14.01,2013-08-28 05:06:00,
2013-08-28 00:11:00,71.5,69.4,30.04,SE,135,0.0,0.0,93,0.00,,---,0.00,VWS V14.01,2013-08-28 05:11:00,
2013-08-28 00:16:00,71.2,69.4,30.04,SE,135,0.0,0.0,94,0.00,,---,0.00,VWS V14.01,2013-08-28 05:16:00,
2013-08-28 00:21:00,71.1,69.3,30.04,SE,135,0.0,0.0,94,0.00,,---,0.00,VWS V14.01,2013-08-28 05:21:00,
2013-08-28 00:26:00,70.9,69.4,30.04,SE,135,0.0,0.0,95,0.00,,---,0.00,VWS V14.01,2013-08-28 05:26:00,
2013-08-28 00:31:00,70.7,69.2,30.04,SE,135,0.0,0.0,95,0.00,,---,0.00,VWS V14.01,2013-08-28 05:31:00,
2013-08-28 00:36:00,70.6,69.1,30.04,SE,135,0.0,0.0,95,0.00,,---,0.00,VWS V14.01,2013-08-28 05:36:00,
2013-08-28 00:41:00,70.6,69.1,30.04,SE,135,0.0,0.0,95,0.00,,---,0.00,VWS V14.01,2013-08-28 05:41:00,
2013-08-28 00:46:00,70.5,69.0,30.04,SE,135,0.0,0.0,95,0.00,,---,0.00,VWS V14.01,2013-08-28 05:46:00,
2013-08-28 00:51:00,70.4,69.2,30.04,SE,135,0.0,0.0,96,0.00,,---,0.00,VWS V14.01,2013-08-28 05:51:00,
2013-08-28 00:56:00,70.2,69.0,30.04,SE,135,0.0,0.0,96,0.00,,---,0.00,VWS V14.01,2013-08-28 05:56:00,
2013-08-28 01:01:00,70.1,68.9,30.04,SE,135,0.0,0.0,96,0.00,,---,0.00,VWS V14.01,2013-08-28 06:01:00,
2013-08-28 01:06:00,70.3,69.1,30.03,SE,135,0.0,0.0,96,0.00,,---,0.00,VWS V14.01,2013-08-28 06:06:00,
2013-08-28 01:11:00,70.2,69.0,30.03,SE,135,0.0,0.0,96,0.00,,---,0.00,VWS V14.01,2013-08-28 06:11:00,
2013-08-28 01:16:00,70.1,68.9,30.03,SE,135,0.0,0.0,96,0.00,,---,0.00,VWS V14.01,2013-08-28 06:16:00,
2013-08-28 01:21:00,70.0,68.8,30.03,SE,135,0.0,0.0,96,0.00,,---,0.00,VWS V14.01,2013-08-28 06:21:00,
2013-08-28 01:26:00,69.8,68.6,30.03,SE,135,0.0,0.0,96,0.00,,---,0.00,VWS V14.01,2013-08-28 06:26:00,
2013-08-28 01:31:00,69.8,68.6,30.03,SE,135,0.0,0.0,96,0.00,,---,0.00,VWS V14.01,2013-08-28 06:31:00,
2013-08-28 01:36:00,69.8,68.6,30.03,SE,135,0.0,0.0,96,0.00,,---,0.00,VWS V14.01,2013-08-28 06:36:00,
2013-08-28 01:41:00,69.7,68.5,30.04,ESE,102,2.0,2.0,96,0.00,,---,0.00,VWS V14.01,2013-08-28 06:41:00,
2013-08-28 01:46:00,69.5,68.3,30.03,ESE,102,0.0,2.0,96,0.00,,---,0.00,VWS V14.01,2013-08-28 06:46:00,
2013-08-28 01:51:00,69.5,68.3,30.04,ESE,102,0.0,2.0,96,0.00,,---,0.00,VWS V14.01,2013-08-28 06:51:00,
2013-08-28 01:56:00,69.4,68.2,30.03,ESE,102,0.0,2.0,96,0.00,,---,0.00,VWS V14.01,2013-08-28 06:56:00,
2013-08-28 02:01:00,69.4,68.2,30.03,ESE,102,0.0,2.0,96,0.00,,---,0.00,VWS V14.01,2013-08-28 07:01:00,
2013-08-28 02:06:00,69.3,68.1,30.03,ESE,102,0.0,2.0,96,0.00,,---,0.00,VWS V14.01,2013-08-28 07:06:00,
2013-08-28 02:11:00,69.4,68.2,30.04,ESE,102,0.0,0.0,96,0.00,,---,0.00,VWS V14.01,2013-08-28 07:11:00,
2013-08-28 02:16:00,69.5,68.3,30.04,ESE,102,0.0,0.0,96,0.00,,---,0.00,VWS V14.01,2013-08-28 07:16:00,
2013-08-28 02:21:00,69.3,68.1,30.04,ESE,102,0.0,0.0,96,0.00,,---,0.00,VWS V14.01,2013-08-28 07:21:00,
2013-08-28 02:26:00,69.2,68.0,30.04,ESE,102,0.0,0.0,96,0.00,,---,0.00,VWS V14.01,2013-08-28 07:26:00,
2013-08-28 02:31:00,69.2,68.0,30.04,ESE,102,0.0,0.0,96,0.00,,---,0.00,VWS V14.01,2013-08-28 07:31:00,
2013-08-28 02:36:00,69.1,67.9,30.04,ESE,102,0.0,0.0,96,0.00,,---,0.00,VWS V14.01,2013-08-28 07:36:00,
2013-08-28 02:41:00,69.1,67.9,30.04,ESE,102,0.0,0.0,96,0.00,,---,0.00,VWS V14.01,2013-08-28 07:41:00,
2013-08-28 02:46:00,69.1,67.9,30.04,ESE,102,0.0,0.0,96,0.00,,---,0.00,VWS V14.01,2013-08-28 07:46:00,
2013-08-28 02:51:00,68.9,67.7,30.03,ESE,102,0.0,0.0,96,0.00,,---,0.00,VWS V14.01,2013-08-28 07:51:00,
2013-08-28 02:56:00,68.9,67.7,30.03,ESE,102,0.0,0.0,96,0.00,,---,0.00,VWS V14.01,2013-08-28 07:56:00,
2013-08-28 03:01:00,68.9,67.7,30.03,ESE,102,0.0,0.0,96,0.00,,---,0.00,VWS V14.01,2013-08-28 08:01:00,
2013-08-28 03:06:00,68.8,67.6,30.03,ESE,102,0.0,0.0,96,0.00,,---,0.00,VWS V14.01,2013-08-28 08:06:00,
2013-08-28 03:11:00,68.8,67.6,30.03,ESE,102,0.0,0.0,96,0.00,,---,0.00,VWS V14.01,2013-08-28 08:11:00,
2013-08-28 03:16:00,68.6,67.7,30.03,ESE,102,0.0,0.0,97,0.00,,---,0.00,VWS V14.01,2013-08-28 08:16:00,
2013-08-28 03:21:00,68.6,67.7,30.03,ESE,102,0.0,0.0,97,0.00,,---,0.00,VWS V14.01,2013-08-28 08:21:00,
2013-08-28 03:27:00,68.5,67.6,30.03,ESE,102,0.0,0.0,97,0.00,,---,0.00,VWS V14.01,2013-08-28 08:27:00,
2013-08-28 03:32:00,68.5,67.6,30.03,ESE,102,0.0,0.0,97,0.00,,---,0.00,VWS V14.01,2013-08-28 08:32:00,
2013-08-28 03:37:00,68.5,67.6,30.03,ESE,102,0.0,0.0,97,0.00,,---,0.00,VWS V14.01,2013-08-28 08:37:00,
2013-08-28 03:42:00,68.3,67.4,30.03,ESE,102,0.0,0.0,97,0.00,,---,0.00,VWS V14.01,2013-08-28 08:42:00,
2013-08-28 03:47:00,68.3,67.4,30.03,ESE,102,0.0,0.0,97,0.00,,---,0.00,VWS V14.01,2013-08-28 08:47:00,
2013-08-28 03:52:00,68.4,67.5,30.03,ESE,102,0.0,0.0,97,0.00,,---,0.00,VWS V14.01,2013-08-28 08:52:00,
2013-08-28 03:57:00,68.2,67.3,30.03,ESE,102,0.0,0.0,97,0.00,,---,0.00,VWS V14.01,2013-08-28 08:57:00,
2013-08-28 04:02:00,68.1,67.2,30.03,ESE,102,0.0,0.0,97,0.00,,---,0.00,VWS V14.01,2013-08-28 09:02:00,
2013-08-28 04:06:00,68.2,67.3,30.03,ESE,102,0.0,0.0,97,0.00,,---,0.00,VWS V14.01,2013-08-28 09:06:00,
2013-08-28 04:07:00,68.2,67.3,30.03,ESE,102,0.0,0.0,97,0.00,,---,0.00,VWS V14.01,2013-08-28 09:07:00,
2013-08-28 04:12:00,68.2,67.3,30.03,ESE,102,0.0,0.0,97,0.00,,---,0.00,VWS V14.01,2013-08-28 09:12:00,
2013-08-28 04:17:00,68.1,67.2,30.03,ESE,102,0.0,0.0,97,0.00,,---,0.00,VWS V14.01,2013-08-28 09:17:00,
2013-08-28 04:22:00,68.1,67.2,30.03,ESE,102,0.0,0.0,97,0.00,,---,0.00,VWS V14.01,2013-08-28 09:22:00,
2013-08-28 04:27:00,68.2,67.3,30.03,ESE,102,0.0,0.0,97,0.00,,---,0.00,VWS V14.01,2013-08-28 09:27:00,
2013-08-28 04:32:00,68.1,67.2,30.03,ESE,102,0.0,0.0,97,0.00,,---,0.00,VWS V14.01,2013-08-28 09:32:00,
2013-08-28 04:36:00,68.1,67.2,30.03,ESE,102,0.0,0.0,97,0.00,,---,0.00,VWS V14.01,2013-08-28 09:36:00,
2013-08-28 04:37:00,68.1,67.2,30.03,ESE,102,0.0,0.0,97,0.00,,---,0.00,VWS V14.01,2013-08-28 09:37:00,
2013-08-28 04:42:00,68.0,67.1,30.03,ESE,102,0.0,0.0,97,0.00,,---,0.00,VWS V14.01,2013-08-28 09:42:00,
2013-08-28 04:47:00,67.9,67.0,30.04,ESE,102,0.0,0.0,97,0.00,,---,0.00,VWS V14.01,2013-08-28 09:47:00,
2013-08-28 04:52:00,67.8,66.9,30.04,ESE,102,0.0,0.0,97,0.00,,---,0.00,VWS V14.01,2013-08-28 09:52:00,
2013-08-28 04:57:00,67.7,66.8,30.04,ESE,102,0.0,0.0,97,0.00,,---,0.00,VWS V14.01,2013-08-28 09:57:00,
2013-08-28 05:02:00,67.7,66.8,30.04,ESE,102,0.0,0.0,97,0.00,,---,0.00,VWS V14.01,2013-08-28 10:02:00,
2013-08-28 05:06:00,67.6,66.7,30.04,ESE,102,0.0,0.0,97,0.00,,---,0.00,VWS V14.01,2013-08-28 10:06:00,
2013-08-28 05:07:00,67.6,66.7,30.04,ESE,102,0.0,0.0,97,0.00,,---,0.00,VWS V14.01,2013-08-28 10:07:00,
2013-08-28 05:12:00,67.6,66.7,30.04,ESE,102,0.0,0.0,97,0.00,,---,0.00,VWS V14.01,2013-08-28 10:12:00,
2013-08-28 05:17:00,67.5,66.6,30.04,ESE,102,0.0,0.0,97,0.00,,---,0.00,VWS V14.01,2013-08-28 10:17:00,
2013-08-28 05:22:00,67.5,66.6,30.04,ESE,102,0.0,0.0,97,0.00,,---,0.00,VWS V14.01,2013-08-28 10:22:00,
2013-08-28 05:27:00,67.5,66.6,30.04,ESE,102,0.0,0.0,97,0.00,,---,0.00,VWS V14.01,2013-08-28 10:27:00,
2013-08-28 05:32:00,67.4,66.5,30.04,ESE,102,0.0,0.0,97,0.00,,---,0.00,VWS V14.01,2013-08-28 10:32:00,
2013-08-28 05:36:00,67.4,66.5,30.04,ESE,102,0.0,0.0,97,0.00,,---,0.00,VWS V14.01,2013-08-28 10:36:00,
2013-08-28 05:42:00,67.3,66.7,30.04,ESE,102,0.0,0.0,98,0.00,,---,0.00,VWS V14.01,2013-08-28 10:42:00,
2013-08-28 05:47:00,67.3,66.7,30.05,ESE,102,0.0,0.0,98,0.00,,---,0.00,VWS V14.01,2013-08-28 10:47:00,
2013-08-28 05:52:00,67.2,66.6,30.05,ESE,102,0.0,0.0,98,0.00,,---,0.00,VWS V14.01,2013-08-28 10:52:00,
2013-08-28 05:57:00,67.2,66.6,30.05,ESE,102,0.0,0.0,98,0.00,,---,0.00,VWS V14.01,2013-08-28 10:57:00,
2013-08-28 06:02:00,67.0,66.1,30.05,ESE,102,0.0,0.0,97,0.00,,---,0.00,VWS V14.01,2013-08-28 11:02:00,
2013-08-28 06:06:00,67.0,66.1,30.05,ESE,102,0.0,0.0,97,0.00,,---,0.00,VWS V14.01,2013-08-28 11:06:00,
2013-08-28 06:12:00,67.2,66.6,30.05,ESE,102,0.0,0.0,98,0.00,,---,0.00,VWS V14.01,2013-08-28 11:12:00,
2013-08-28 06:17:00,67.2,66.6,30.05,ESE,102,0.0,0.0,98,0.00,,---,0.00,VWS V14.01,2013-08-28 11:17:00,
2013-08-28 06:22:00,67.3,66.7,30.05,ESE,102,0.0,0.0,98,0.00,,---,0.00,VWS V14.01,2013-08-28 11:22:00,
2013-08-28 06:27:00,67.2,66.6,30.05,ESE,102,0.0,0.0,98,0.00,,---,0.00,VWS V14.01,2013-08-28 11:27:00,
2013-08-28 06:32:00,67.2,66.6,30.05,ESE,102,0.0,0.0,98,0.00,,---,0.00,VWS V14.01,2013-08-28 11:32:00,
2013-08-28 06:36:00,67.3,66.7,30.05,ESE,102,0.0,0.0,98,0.00,,---,0.00,VWS V14.01,2013-08-28 11:36:00,
2013-08-28 06:42:00,67.3,66.7,30.05,ESE,102,0.0,0.0,98,0.00,,---,0.00,VWS V14.01,2013-08-28 11:42:00,
2013-08-28 06:47:00,67.3,66.7,30.06,ESE,102,0.0,0.0,98,0.00,,---,0.00,VWS V14.01,2013-08-28 11:47:00,
2013-08-28 06:52:00,67.1,66.5,30.06,ESE,102,0.0,0.0,98,0.00,,---,0.00,VWS V14.01,2013-08-28 11:52:00,
2013-08-28 06:57:00,67.0,66.4,30.06,ESE,102,0.0,0.0,98,0.00,,---,0.00,VWS V14.01,2013-08-28 11:57:00,
2013-08-28 07:02:00,67.1,66.5,30.06,ESE,102,0.0,0.0,98,0.00,,---,0.00,VWS V14.01,2013-08-28 12:02:00,
2013-08-28 07:06:00,67.3,66.7,30.06,ESE,102,0.0,0.0,98,0.00,,---,0.00,VWS V14.01,2013-08-28 12:06:00,
2013-08-28 07:07:00,67.3,66.7,30.06,ESE,102,0.0,0.0,98,0.00,,---,0.00,VWS V14.01,2013-08-28 12:07:00,
2013-08-28 07:12:00,67.3,66.7,30.06,ESE,102,0.0,0.0,98,0.00,,---,0.00,VWS V14.01,2013-08-28 12:12:00,
2013-08-28 07:17:00,67.3,66.7,30.06,ESE,102,0.0,0.0,98,0.00,,---,0.00,VWS V14.01,2013-08-28 12:17:00,
2013-08-28 07:22:00,67.4,66.8,30.06,ESE,102,0.0,0.0,98,0.00,,---,0.00,VWS V14.01,2013-08-28 12:22:00,
2013-08-28 07:27:00,67.6,67.0,30.06,ESE,102,0.0,0.0,98,0.00,,---,0.00,VWS V14.01,2013-08-28 12:27:00,
2013-08-28 07:32:00,67.8,67.2,30.07,ENE,76,0.0,0.0,98,0.00,,---,0.00,VWS V14.01,2013-08-28 12:32:00,
2013-08-28 07:36:00,67.9,67.3,30.07,ENE,76,0.0,0.0,98,0.00,,---,0.00,VWS V14.01,2013-08-28 12:36:00,
2013-08-28 07:42:00,68.2,67.6,30.07,ENE,76,0.0,0.0,98,0.00,,---,0.00,VWS V14.01,2013-08-28 12:42:00,
2013-08-28 07:47:00,68.4,67.8,30.07,ENE,76,0.0,0.0,98,0.00,,---,0.00,VWS V14.01,2013-08-28 12:47:00,
2013-08-28 07:52:00,68.9,68.3,30.07,ENE,76,0.0,0.0,98,0.00,,---,0.00,VWS V14.01,2013-08-28 12:52:00,
2013-08-28 07:57:00,69.0,68.4,30.07,NNE,28,0.0,0.0,98,0.00,,---,0.00,VWS V14.01,2013-08-28 12:57:00,
2013-08-28 08:02:00,69.6,69.0,30.07,NNE,28,0.0,0.0,98,0.00,,---,0.00,VWS V14.01,2013-08-28 13:02:00,
2013-08-28 08:07:00,69.8,69.2,30.08,NNE,28,0.0,0.0,98,0.00,,---,0.00,VWS V14.01,2013-08-28 13:07:00,
2013-08-28 08:12:00,70.6,70.0,30.08,NNE,28,0.0,0.0,98,0.00,,---,0.00,VWS V14.01,2013-08-28 13:12:00,
2013-08-28 08:17:00,71.3,70.7,30.08,SSE,164,0.0,0.0,98,0.00,,---,0.00,VWS V14.01,2013-08-28 13:17:00,
2013-08-28 08:22:00,71.9,71.3,30.08,SSE,164,0.0,0.0,98,0.00,,---,0.00,VWS V14.01,2013-08-28 13:22:00,
2013-08-28 08:27:00,72.7,72.1,30.08,SSE,164,0.0,0.0,98,0.00,,---,0.00,VWS V14.01,2013-08-28 13:27:00,
2013-08-28 08:32:00,73.6,73.0,30.08,SSE,164,0.0,0.0,98,0.00,,---,0.00,VWS V14.01,2013-08-28 13:32:00,
2013-08-28 08:36:00,74.0,73.1,30.08,SSE,164,0.0,0.0,97,0.00,,---,0.00,VWS V14.01,2013-08-28 13:36:00,
2013-08-28 08:42:00,74.9,73.7,30.08,SSW,202,0.0,0.0,96,0.00,,---,0.00,VWS V14.01,2013-08-28 13:42:00,
2013-08-28 08:47:00,75.2,73.4,30.08,SW,235,1.0,2.0,94,0.00,,---,0.00,VWS V14.01,2013-08-28 13:47:00,
2013-08-28 08:52:00,76.0,73.8,30.08,WNW,282,1.0,3.0,93,0.00,,---,0.00,VWS V14.01,2013-08-28 13:52:00,
2013-08-28 08:57:00,76.5,73.7,30.08,West,281,1.0,3.0,91,0.00,,---,0.00,VWS V14.01,2013-08-28 13:57:00,
2013-08-28 09:02:00,77.0,73.8,30.08,West,271,1.0,3.0,90,0.00,,---,0.00,VWS V14.01,2013-08-28 14:02:00,
2013-08-28 09:07:00,77.6,74.4,30.08,West,266,3.0,3.0,90,0.00,,---,0.00,VWS V14.01,2013-08-28 14:07:00,
2013-08-28 09:12:00,78.6,74.8,30.08,WNW,288,1.0,4.0,88,0.00,,---,0.00,VWS V14.01,2013-08-28 14:12:00,
2013-08-28 09:17:00,78.9,74.7,30.08,West,263,1.0,4.0,87,0.00,,---,0.00,VWS V14.01,2013-08-28 14:17:00,
2013-08-28 09:23:00,79.3,74.8,30.08,WSW,257,2.0,4.0,86,0.00,,---,0.00,VWS V14.01,2013-08-28 14:23:00,
2013-08-28 09:28:00,79.5,74.2,30.08,WSW,253,0.0,4.0,84,0.00,,---,0.00,VWS V14.01,2013-08-28 14:28:00,
2013-08-28 09:33:00,80.1,74.5,30.08,WSW,252,0.0,4.0,83,0.00,,---,0.00,VWS V14.01,2013-08-28 14:33:00,
2013-08-28 09:38:00,81.0,76.4,30.08,WSW,252,0.0,0.0,86,0.00,,---,0.00,VWS V14.01,2013-08-28 14:38:00,
2013-08-28 09:43:00,81.8,75.8,30.08,WNW,290,3.0,4.0,82,0.00,,---,0.00,VWS V14.01,2013-08-28 14:43:00,
2013-08-28 09:48:00,81.8,75.8,30.08,SW,225,3.0,4.0,82,0.00,,---,0.00,VWS V14.01,2013-08-28 14:48:00,
2013-08-28 09:53:00,82.7,75.9,30.08,West,281,2.0,4.0,80,0.00,,---,0.00,VWS V14.01,2013-08-28 14:53:00,
2013-08-28 09:58:00,82.7,75.5,30.08,West,264,1.0,4.0,79,0.00,,---,0.00,VWS V14.01,2013-08-28 14:58:00,
2013-08-28 10:03:00,83.2,76.0,30.08,WSW,255,0.0,4.0,79,0.00,,---,0.00,VWS V14.01,2013-08-28 15:03:00,
2013-08-28 10:06:00,83.3,75.7,30.08,SW,236,2.0,4.0,78,0.00,,---,0.00,VWS V14.01,2013-08-28 15:06:00,
2013-08-28 10:08:00,83.4,76.2,30.08,SW,233,2.0,3.0,79,0.00,,---,0.00,VWS V14.01,2013-08-28 15:08:00,
2013-08-28 10:13:00,83.7,75.7,30.08,West,269,1.0,4.0,77,0.00,,---,0.00,VWS V14.01,2013-08-28 15:13:00,
2013-08-28 10:18:00,84.1,76.1,30.07,SW,235,3.0,4.0,77,0.00,,---,0.00,VWS V14.01,2013-08-28 15:18:00,
2013-08-28 10:23:00,84.7,76.3,30.08,SW,231,0.0,4.0,76,0.00,,---,0.00,VWS V14.01,2013-08-28 15:23:00,
2013-08-28 10:28:00,85.1,75.1,30.08,WNW,284,3.0,4.0,72,0.00,,---,0.00,VWS V14.01,2013-08-28 15:28:00,
2013-08-28 10:33:00,85.4,75.8,30.08,NE,42,0.0,4.0,73,0.00,,---,0.00,VWS V14.01,2013-08-28 15:33:00,
2013-08-28 10:36:00,85.7,77.3,30.08,NE,42,0.0,4.0,76,0.00,,---,0.00,VWS V14.01,2013-08-28 15:36:00,
2013-08-28 10:38:00,86.0,74.7,30.08,WNW,290,2.0,6.0,69,0.00,,---,0.00,VWS V14.01,2013-08-28 15:38:00,
2013-08-28 10:43:00,86.8,75.4,30.08,WSW,255,2.0,6.0,69,0.00,,---,0.00,VWS V14.01,2013-08-28 15:43:00,
2013-08-28 10:48:00,87.5,76.5,30.08,WNW,298,2.0,6.0,70,0.00,,---,0.00,VWS V14.01,2013-08-28 15:48:00,
2013-08-28 10:53:00,87.5,75.6,30.08,North,360,0.0,6.0,68,0.00,,---,0.00,VWS V14.01,2013-08-28 15:53:00,
2013-08-28 10:58:00,88.5,74.3,30.08,North,360,4.0,6.0,63,0.00,,---,0.00,VWS V14.01,2013-08-28 15:58:00,
2013-08-28 11:03:00,88.4,74.2,30.08,WNW,286,4.0,6.0,63,0.00,,---,0.00,VWS V14.01,2013-08-28 16:03:00,
2013-08-28 11:06:00,87.9,74.2,30.07,SW,232,1.0,6.0,64,0.00,,---,0.00,VWS V14.01,2013-08-28 16:06:00,
2013-08-28 11:13:00,87.3,75.0,30.07,WSW,244,5.0,5.0,67,0.00,,---,0.00,VWS V14.01,2013-08-28 16:13:00,
2013-08-28 11:18:00,88.4,75.1,30.07,WSW,237,1.0,6.0,65,0.00,,---,0.00,VWS V14.01,2013-08-28 16:18:00,
2013-08-28 11:23:00,88.4,74.2,30.07,WNW,288,2.0,6.0,63,0.00,,---,0.00,VWS V14.01,2013-08-28 16:23:00,
2013-08-28 11:28:00,89.2,76.4,30.07,NE,34,2.0,6.0,66,0.00,,---,0.00,VWS V14.01,2013-08-28 16:28:00,
2013-08-28 11:33:00,89.2,74.5,30.07,WSW,247,2.0,6.0,62,0.00,,---,0.00,VWS V14.01,2013-08-28 16:33:00,
2013-08-28 11:36:00,88.5,74.3,30.07,WSW,257,0.0,6.0,63,0.00,,---,0.00,VWS V14.01,2013-08-28 16:36:00,
2013-08-28 11:38:00,88.7,73.0,30.07,WSW,257,0.0,0.0,60,0.00,,---,0.00,VWS V14.01,2013-08-28 16:38:00,
2013-08-28 11:43:00,89.2,72.5,30.07,NNW,343,0.0,4.0,58,0.00,,---,0.00,VWS V14.01,2013-08-28 16:43:00,
2013-08-28 11:48:00,89.3,74.1,30.07,NE,36,0.0,4.0,61,0.00,,---,0.00,VWS V14.01,2013-08-28 16:48:00,
2013-08-28 11:53:00,89.7,73.0,30.06,West,265,2.0,5.0,58,0.00,,---,0.00,VWS V14.01,2013-08-28 16:53:00,
2013-08-28 11:58:00,90.1,74.3,30.06,WSW,250,3.0,5.0,60,0.00,,---,0.00,VWS V14.01,2013-08-28 16:58:00,
2013-08-28 12:03:00,90.3,74.0,30.06,North,5,0.0,5.0,59,0.00,,---,0.00,VWS V14.01,2013-08-28 17:03:00,
2013-08-28 12:06:00,90.2,71.9,30.06,WSW,254,0.0,5.0,55,0.00,,---,0.00,VWS V14.01,2013-08-28 17:06:00,
2013-08-28 12:13:00,89.5,73.3,30.06,ESE,115,2.0,3.0,59,0.00,,---,0.00,VWS V14.01,2013-08-28 17:13:00,
2013-08-28 12:18:00,88.4,73.2,30.06,East,100,0.0,3.0,61,0.00,,---,0.00,VWS V14.01,2013-08-28 17:18:00,
2013-08-28 12:23:00,87.8,72.7,30.06,East,100,0.0,3.0,61,0.00,,---,0.00,VWS V14.01,2013-08-28 17:23:00,
2013-08-28 12:28:00,87.1,72.5,30.05,East,100,0.0,3.0,62,0.00,,---,0.00,VWS V14.01,2013-08-28 17:28:00,
2013-08-28 12:33:00,87.4,73.7,30.05,ENE,75,0.0,3.0,64,0.00,,---,0.00,VWS V14.01,2013-08-28 17:33:00,
2013-08-28 12:38:00,89.5,73.8,30.05,West,261,2.0,3.0,60,0.00,,---,0.00,VWS V14.01,2013-08-28 17:38:00,
2013-08-28 12:43:00,89.3,73.6,30.05,West,261,1.0,3.0,60,0.00,,---,0.00,VWS V14.01,2013-08-28 17:43:00,
2013-08-28 12:48:00,88.5,73.8,30.05,NE,47,0.0,3.0,62,0.00,,---,0.00,VWS V14.01,2013-08-28 17:48:00,
2013-08-28 12:53:00,88.6,71.9,30.05,NE,41,1.0,3.0,58,0.00,,---,0.00,VWS V14.01,2013-08-28 17:53:00,
2013-08-28 12:58:00,89.7,72.4,30.05,East,88,0.0,3.0,57,0.00,,---,0.00,VWS V14.01,2013-08-28 17:58:00,
2013-08-28 13:03:00,90.6,71.7,30.04,NE,56,2.0,3.0,54,0.00,,---,0.00,VWS V14.01,2013-08-28 18:03:00,
2013-08-28 13:06:00,91.0,73.7,30.04,East,82,1.0,3.0,57,0.00,,---,0.00,VWS V14.01,2013-08-28 18:06:00,
2013-08-28 13:08:00,91.1,72.7,30.04,East,93,3.0,3.0,55,0.00,,---,0.00,VWS V14.01,2013-08-28 18:08:00,
2013-08-28 13:13:00,91.0,72.6,30.04,SE,128,1.0,4.0,55,0.00,,---,0.00,VWS V14.01,2013-08-28 18:13:00,
2013-08-28 13:18:00,89.9,71.0,30.04,ENE,59,2.0,4.0,54,0.00,,---,0.00,VWS V14.01,2013-08-28 18:18:00,
2013-08-28 13:23:00,88.7,70.5,30.04,ESE,102,1.0,5.0,55,0.00,,---,0.00,VWS V14.01,2013-08-28 18:23:00,
2013-08-28 13:28:00,88.3,71.7,30.04,East,99,0.0,5.0,58,0.00,,---,0.00,VWS V14.01,2013-08-28 18:28:00,
2013-08-28 13:33:00,89.7,73.5,30.04,SE,134,1.0,5.0,59,0.00,,---,0.00,VWS V14.01,2013-08-28 18:33:00,
2013-08-28 13:38:00,91.0,70.4,30.04,ENE,72,3.0,5.0,51,0.00,,---,0.00,VWS V14.01,2013-08-28 18:38:00,
2013-08-28 13:43:00,90.0,69.5,30.03,North,355,2.0,5.0,51,0.00,,---,0.00,VWS V14.01,2013-08-28 18:43:00,
2013-08-28 13:48:00,88.4,70.2,30.03,East,86,2.0,5.0,55,0.00,,---,0.00,VWS V14.01,2013-08-28 18:48:00,
2013-08-28 13:53:00,88.6,70.9,30.03,East,87,1.0,5.0,56,0.00,,---,0.00,VWS V14.01,2013-08-28 18:53:00,
2013-08-28 13:58:00,90.1,70.1,30.03,East,92,0.0,5.0,52,0.00,,---,0.00,VWS V14.01,2013-08-28 18:58:00,
2013-08-28 14:03:00,91.0,69.2,30.03,ENE,69,2.0,5.0,49,0.00,,---,0.00,VWS V14.01,2013-08-28 19:03:00,
2013-08-28 14:06:00,91.1,70.5,30.03,ENE,69,0.0,5.0,51,0.00,,---,0.00,VWS V14.01,2013-08-28 19:06:00,
2013-08-28 14:08:00,91.5,72.5,30.03,NE,53,1.0,1.0,54,0.00,,---,0.00,VWS V14.01,2013-08-28 19:08:00,
2013-08-28 14:13:00,90.0,70.6,30.03,NE,40,2.0,5.0,53,0.00,,---,0.00,VWS V14.01,2013-08-28 19:13:00,
2013-08-28 14:18:00,90.1,71.8,30.03,East,86,2.0,5.0,55,0.00,,---,0.00,VWS V14.01,2013-08-28 19:18:00,
2013-08-28 14:23:00,91.1,71.0,30.02,ESE,114,1.0,5.0,52,0.00,,---,0.00,VWS V14.01,2013-08-28 19:23:00,
2013-08-28 14:28:00,91.6,70.9,30.02,ENE,78,2.0,5.0,51,0.00,,---,0.00,VWS V14.01,2013-08-28 19:28:00,
2013-08-28 14:33:00,91.9,72.9,30.02,East,84,2.0,5.0,54,0.00,,---,0.00,VWS V14.01,2013-08-28 19:33:00,
2013-08-28 14:36:00,92.1,73.1,30.02,ENE,57,3.0,5.0,54,0.00,,---,0.00,VWS V14.01,2013-08-28 19:36:00,
2013-08-28 14:43:00,90.7,70.7,30.02,ESE,111,2.0,3.0,52,0.00,,---,0.00,VWS V14.01,2013-08-28 19:43:00,
2013-08-28 14:48:00,90.4,70.9,30.02,East,83,1.0,4.0,53,0.00,,---,0.00,VWS V14.01,2013-08-28 19:48:00,
2013-08-28 14:54:00,89.9,71.6,30.02,ENE,62,0.0,4.0,55,0.00,,---,0.00,VWS V14.01,2013-08-28 19:54:00,
2013-08-28 14:59:00,91.1,71.0,30.01,ESE,107,3.0,4.0,52,0.00,,---,0.00,VWS V14.01,2013-08-28 19:59:00,
2013-08-28 15:04:00,91.7,72.7,30.01,East,80,2.0,5.0,54,0.00,,---,0.00,VWS V14.01,2013-08-28 20:04:00,
2013-08-28 15:06:00,91.1,72.2,30.01,East,85,1.0,5.0,54,0.00,,---,0.00,VWS V14.01,2013-08-28 20:06:00,
2013-08-28 15:09:00,91.1,70.5,30.01,East,92,0.0,3.0,51,0.00,,---,0.00,VWS V14.01,2013-08-28 20:09:00,
2013-08-28 15:14:00,91.8,71.1,30.01,NE,52,0.0,5.0,51,0.00,,---,0.00,VWS V14.01,2013-08-28 20:14:00,
2013-08-28 15:19:00,92.2,70.3,30.00,ENE,76,3.0,5.0,49,0.00,,---,0.00,VWS V14.01,2013-08-28 20:19:00,
2013-08-28 15:24:00,92.1,71.4,30.00,ESE,120,0.0,5.0,51,0.00,,---,0.00,VWS V14.01,2013-08-28 20:24:00,
2013-08-28 15:29:00,91.8,70.5,30.00,ENE,78,3.0,5.0,50,0.00,,---,0.00,VWS V14.01,2013-08-28 20:29:00,
2013-08-28 15:34:00,92.0,72.4,30.00,West,279,0.0,5.0,53,0.00,,---,0.00,VWS V14.01,2013-08-28 20:34:00,
2013-08-28 15:39:00,92.2,73.2,30.00,East,98,2.0,6.0,54,0.00,,---,0.00,VWS V14.01,2013-08-28 20:39:00,
2013-08-28 15:44:00,91.9,72.9,30.00,East,98,2.0,6.0,54,0.00,,---,0.00,VWS V14.01,2013-08-28 20:44:00,
2013-08-28 15:49:00,91.8,71.7,30.00,East,82,2.0,6.0,52,0.00,,---,0.00,VWS V14.01,2013-08-28 20:49:00,
2013-08-28 15:54:00,90.1,71.8,30.00,ENE,69,2.0,6.0,55,0.00,,---,0.00,VWS V14.01,2013-08-28 20:54:00,
2013-08-28 15:59:00,88.9,71.2,30.00,East,82,2.0,6.0,56,0.00,,---,0.00,VWS V14.01,2013-08-28 20:59:00,
2013-08-28 16:04:00,88.4,72.3,30.00,East,82,1.0,6.0,59,0.00,,---,0.00,VWS V14.01,2013-08-28 21:04:00,
2013-08-28 16:09:00,88.8,72.6,30.00,East,86,3.0,3.0,59,0.00,,---,0.00,VWS V14.01,2013-08-28 21:09:00,
2013-08-28 16:14:00,90.4,73.1,30.00,ENE,65,2.0,3.0,57,0.00,,---,0.00,VWS V14.01,2013-08-28 21:14:00,
2013-08-28 16:19:00,91.4,71.9,30.00,East,80,1.0,5.0,53,0.00,,---,0.00,VWS V14.01,2013-08-28 21:19:00,
2013-08-28 16:24:00,90.7,71.2,30.00,East,88,2.0,5.0,53,0.00,,---,0.00,VWS V14.01,2013-08-28 21:24:00,
2013-08-28 16:29:00,89.6,71.8,30.00,East,85,1.0,5.0,56,0.00,,---,0.00,VWS V14.01,2013-08-28 21:29:00,
2013-08-28 16:34:00,90.5,72.7,30.00,East,86,1.0,5.0,56,0.00,,---,0.00,VWS V14.01,2013-08-28 21:34:00,
2013-08-28 16:36:00,90.6,72.2,30.00,East,86,0.0,5.0,55,0.00,,---,0.00,VWS V14.01,2013-08-28 21:36:00,
2013-08-28 16:39:00,90.6,71.7,30.00,ESE,107,2.0,4.0,54,0.00,,---,0.00,VWS V14.01,2013-08-28 21:39:00,
2013-08-28 16:44:00,91.0,73.1,30.00,East,86,1.0,4.0,56,0.00,,---,0.00,VWS V14.01,2013-08-28 21:44:00,
2013-08-28 16:49:00,91.1,72.2,29.99,ENE,69,1.0,4.0,54,0.00,,---,0.00,VWS V14.01,2013-08-28 21:49:00,
2013-08-28 16:54:00,90.9,73.0,29.99,East,101,2.0,4.0,56,0.00,,---,0.00,VWS V14.01,2013-08-28 21:54:00,
2013-08-28 16:59:00,90.4,71.5,29.99,East,80,1.0,4.0,54,0.00,,---,0.00,VWS V14.01,2013-08-28 21:59:00,
2013-08-28 17:04:00,90.3,72.5,29.99,East,80,0.0,4.0,56,0.00,,---,0.00,VWS V14.01,2013-08-28 22:04:00,
2013-08-28 17:09:00,90.0,72.2,29.99,East,81,0.0,2.0,56,0.00,,---,0.00,VWS V14.01,2013-08-28 22:09:00,
2013-08-28 17:14:00,89.5,70.7,29.99,East,81,1.0,2.0,54,0.00,,---,0.00,VWS V14.01,2013-08-28 22:14:00,
2013-08-28 17:19:00,89.7,72.4,29.99,East,87,2.0,2.0,57,0.00,,---,0.00,VWS V14.01,2013-08-28 22:19:00,
2013-08-28 17:24:00,90.1,71.2,29.99,NNW,333,0.0,4.0,54,0.00,,---,0.00,VWS V14.01,2013-08-28 22:24:00,
2013-08-28 17:29:00,89.8,71.5,29.99,ENE,65,0.0,4.0,55,0.00,,---,0.00,VWS V14.01,2013-08-28 22:29:00,
2013-08-28 17:34:00,89.3,71.6,29.99,East,101,1.0,4.0,56,0.00,,---,0.00,VWS V14.01,2013-08-28 22:34:00,
2013-08-28 17:36:00,89.2,73.5,29.99,East,101,1.0,4.0,60,0.00,,---,0.00,VWS V14.01,2013-08-28 22:36:00,
2013-08-28 17:39:00,88.9,72.2,29.99,East,101,0.0,2.0,58,0.00,,---,0.00,VWS V14.01,2013-08-28 22:39:00,
2013-08-28 17:44:00,88.4,72.8,29.99,East,82,1.0,2.0,60,0.00,,---,0.00,VWS V14.01,2013-08-28 22:44:00,
2013-08-28 17:49:00,88.4,71.2,29.99,East,82,1.0,2.0,57,0.00,,---,0.00,VWS V14.01,2013-08-28 22:49:00,
2013-08-28 17:54:00,89.0,71.8,29.99,East,82,0.0,2.0,57,0.00,,---,0.00,VWS V14.01,2013-08-28 22:54:00,
2013-08-28 17:59:00,88.8,71.1,29.99,East,82,0.0,2.0,56,0.00,,---,0.00,VWS V14.01,2013-08-28 22:59:00,
2013-08-28 18:04:00,88.1,73.4,29.99,East,82,0.0,2.0,62,0.00,,---,0.00,VWS V14.01,2013-08-28 23:04:00,
2013-08-28 18:06:00,87.8,73.6,29.99,East,82,0.0,2.0,63,0.00,,---,0.00,VWS V14.01,2013-08-28 23:06:00,
2013-08-28 18:09:00,87.4,73.3,29.99,East,82,0.0,0.0,63,0.00,,---,0.00,VWS V14.01,2013-08-28 23:09:00,
2013-08-28 18:14:00,86.7,74.4,29.99,East,82,0.0,0.0,67,0.00,,---,0.00,VWS V14.01,2013-08-28 23:14:00,
2013-08-28 18:19:00,86.2,74.4,29.99,East,82,0.0,0.0,68,0.00,,---,0.00,VWS V14.01,2013-08-28 23:19:00,
2013-08-28 18:24:00,85.8,73.6,29.99,East,82,0.0,0.0,67,0.00,,---,0.00,VWS V14.01,2013-08-28 23:24:00,
2013-08-28 18:29:00,85.3,74.4,29.99,East,82,0.0,0.0,70,0.00,,---,0.00,VWS V14.01,2013-08-28 23:29:00,
2013-08-28 18:34:00,84.8,73.9,29.99,East,82,0.0,0.0,70,0.00,,---,0.00,VWS V14.01,2013-08-28 23:34:00,
2013-08-28 18:39:00,84.5,73.7,29.99,East,82,0.0,0.0,70,0.00,,---,0.00,VWS V14.01,2013-08-28 23:39:00,
2013-08-28 18:44:00,84.0,74.0,29.99,East,82,0.0,0.0,72,0.00,,---,0.00,VWS V14.01,2013-08-28 23:44:00,
2013-08-28 18:49:00,83.5,73.9,29.99,East,82,0.0,0.0,73,0.00,,---,0.00,VWS V14.01,2013-08-28 23:49:00,
2013-08-28 18:54:00,83.0,74.3,29.99,East,82,0.0,0.0,75,0.00,,---,0.00,VWS V14.01,2013-08-28 23:54:00,
2013-08-28 18:59:00,82.5,74.2,29.99,East,82,0.0,0.0,76,0.00,,---,0.00,VWS V14.01,2013-08-28 23:59:00,
2013-08-28 19:04:00,81.8,73.9,29.99,East,82,0.0,0.0,77,0.00,,---,0.00,VWS V14.01,2013-08-29 00:04:00,
2013-08-28 19:06:00,81.6,73.3,29.99,East,82,0.0,0.0,76,0.00,,---,0.00,VWS V14.01,2013-08-29 00:06:00,
2013-08-28 19:09:00,81.2,72.1,29.99,East,82,0.0,0.0,74,0.00,,---,0.00,VWS V14.01,2013-08-29 00:09:00,
2013-08-28 19:14:00,81.2,72.9,30.00,East,82,0.0,0.0,76,0.00,,---,0.00,VWS V14.01,2013-08-29 00:14:00,
2013-08-28 19:19:00,81.1,72.8,30.00,East,82,0.0,0.0,76,0.00,,---,0.00,VWS V14.01,2013-08-29 00:19:00,
2013-08-28 19:24:00,80.9,73.0,30.00,East,82,0.0,0.0,77,0.00,,---,0.00,VWS V14.01,2013-08-29 00:24:00,
2013-08-28 19:29:00,80.6,73.1,29.99,East,82,0.0,0.0,78,0.00,,---,0.00,VWS V14.01,2013-08-29 00:29:00,
2013-08-28 19:34:00,79.9,72.4,29.99,East,82,0.0,0.0,78,0.00,,---,0.00,VWS V14.01,2013-08-29 00:34:00,
2013-08-28 19:36:00,79.8,72.7,30.00,East,82,0.0,0.0,79,0.00,,---,0.00,VWS V14.01,2013-08-29 00:36:00,
2013-08-28 19:39:00,79.4,72.7,30.00,East,82,0.0,0.0,80,0.00,,---,0.00,VWS V14.01,2013-08-29 00:39:00,
2013-08-28 19:44:00,79.3,72.6,30.00,East,82,0.0,0.0,80,0.00,,---,0.00,VWS V14.01,2013-08-29 00:44:00,
2013-08-28 19:49:00,79.2,72.9,30.00,East,82,0.0,0.0,81,0.00,,---,0.00,VWS V14.01,2013-08-29 00:49:00,
2013-08-28 19:54:00,78.8,72.5,30.00,East,82,0.0,0.0,81,0.00,,---,0.00,VWS V14.01,2013-08-29 00:54:00,
2013-08-28 19:59:00,78.5,72.6,30.00,East,82,0.0,0.0,82,0.00,,---,0.00,VWS V14.01,2013-08-29 00:59:00,
2013-08-28 20:04:00,78.4,72.4,30.00,East,82,0.0,0.0,82,0.00,,---,0.00,VWS V14.01,2013-08-29 01:04:00,
2013-08-28 20:06:00,78.2,72.3,30.00,East,82,0.0,0.0,82,0.00,,---,0.00,VWS V14.01,2013-08-29 01:06:00,
2013-08-28 20:09:00,78.1,72.2,30.00,East,82,0.0,0.0,82,0.00,,---,0.00,VWS V14.01,2013-08-29 01:09:00,
2013-08-28 20:14:00,77.7,72.1,30.01,East,82,0.0,0.0,83,0.00,,---,0.00,VWS V14.01,2013-08-29 01:14:00,
2013-08-28 20:19:00,77.2,72.3,30.01,East,82,0.0,0.0,85,0.00,,---,0.00,VWS V14.01,2013-08-29 01:19:00,
2013-08-28 20:24:00,77.0,72.2,30.01,East,82,0.0,0.0,85,0.00,,---,0.00,VWS V14.01,2013-08-29 01:24:00,
2013-08-28 20:29:00,77.0,71.8,30.01,East,82,0.0,0.0,84,0.00,,---,0.00,VWS V14.01,2013-08-29 01:29:00,
2013-08-28 20:34:00,77.0,71.4,30.01,East,82,0.0,0.0,83,0.00,,---,0.00,VWS V14.01,2013-08-29 01:34:00,
2013-08-28 20:36:00,76.9,71.3,30.01,East,82,0.0,0.0,83,0.00,,---,0.00,VWS V14.01,2013-08-29 01:36:00,
2013-08-28 20:39:00,76.9,71.3,30.01,East,82,0.0,0.0,83,0.00,,---,0.00,VWS V14.01,2013-08-29 01:39:00,
2013-08-28 20:44:00,76.7,71.2,30.01,East,82,0.0,0.0,83,0.00,,---,0.00,VWS V14.01,2013-08-29 01:44:00,
2013-08-28 20:49:00,76.5,71.3,30.01,East,82,0.0,0.0,84,0.00,,---,0.00,VWS V14.01,2013-08-29 01:49:00,
2013-08-28 20:55:00,76.6,71.1,30.01,East,82,0.0,0.0,83,0.00,,---,0.00,VWS V14.01,2013-08-29 01:55:00,
2013-08-28 21:00:00,76.4,70.5,30.02,East,82,0.0,0.0,82,0.00,,---,0.00,VWS V14.01,2013-08-29 02:00:00,
2013-08-28 21:05:00,76.4,70.9,30.02,East,82,0.0,0.0,83,0.00,,---,0.00,VWS V14.01,2013-08-29 02:05:00,
2013-08-28 21:06:00,76.2,70.7,30.02,East,82,0.0,0.0,83,0.00,,---,0.00,VWS V14.01,2013-08-29 02:06:00,
2013-08-28 21:15:00,75.8,71.0,30.02,East,82,0.0,0.0,85,0.00,,---,0.00,VWS V14.01,2013-08-29 02:15:00,
2013-08-28 21:20:00,75.6,70.4,30.02,East,82,0.0,0.0,84,0.00,,---,0.00,VWS V14.01,2013-08-29 02:20:00,
2013-08-28 21:25:00,75.3,70.1,30.02,East,82,0.0,0.0,84,0.00,,---,0.00,VWS V14.01,2013-08-29 02:25:00,
2013-08-28 21:30:00,75.1,69.9,30.03,East,82,0.0,0.0,84,0.00,,---,0.00,VWS V14.01,2013-08-29 02:30:00,
2013-08-28 21:35:00,75.0,70.2,30.03,East,82,0.0,0.0,85,0.00,,---,0.00,VWS V14.01,2013-08-29 02:35:00,
2013-08-28 21:36:00,74.8,70.3,30.03,East,82,0.0,0.0,86,0.00,,---,0.00,VWS V14.01,2013-08-29 02:36:00,
2013-08-28 21:40:00,74.6,70.1,30.03,East,82,0.0,0.0,86,0.00,,---,0.00,VWS V14.01,2013-08-29 02:40:00,
2013-08-28 21:45:00,74.4,69.9,30.03,East,82,0.0,0.0,86,0.00,,---,0.00,VWS V14.01,2013-08-29 02:45:00,
2013-08-28 21:50:00,74.2,69.8,30.03,East,82,0.0,0.0,86,0.00,,---,0.00,VWS V14.01,2013-08-29 02:50:00,
2013-08-28 21:55:00,74.1,69.7,30.03,East,82,0.0,0.0,86,0.00,,---,0.00,VWS V14.01,2013-08-29 02:55:00,
2013-08-28 22:00:00,73.9,69.8,30.03,East,82,0.0,0.0,87,0.00,,---,0.00,VWS V14.01,2013-08-29 03:00:00,
2013-08-28 22:05:00,73.6,69.8,30.03,East,82,0.0,0.0,88,0.00,,---,0.00,VWS V14.01,2013-08-29 03:05:00,
2013-08-28 22:06:00,73.5,69.7,30.03,East,82,0.0,0.0,88,0.00,,---,0.00,VWS V14.01,2013-08-29 03:06:00,
2013-08-28 22:10:00,73.4,69.6,30.04,East,82,0.0,0.0,88,0.00,,---,0.00,VWS V14.01,2013-08-29 03:10:00,
2013-08-28 22:15:00,73.4,69.6,30.04,East,82,0.0,0.0,88,0.00,,---,0.00,VWS V14.01,2013-08-29 03:15:00,
2013-08-28 22:20:00,73.5,70.1,30.04,East,82,0.0,0.0,89,0.00,,---,0.00,VWS V14.01,2013-08-29 03:20:00,
2013-08-28 22:25:00,73.5,70.1,30.04,East,82,0.0,0.0,89,0.00,,---,0.00,VWS V14.01,2013-08-29 03:25:00,
2013-08-28 22:30:00,73.3,69.9,30.04,East,82,0.0,0.0,89,0.00,,---,0.00,VWS V14.01,2013-08-29 03:30:00,
2013-08-28 22:35:00,73.0,69.6,30.04,East,82,0.0,0.0,89,0.00,,---,0.00,VWS V14.01,2013-08-29 03:35:00,
2013-08-28 22:36:00,73.0,69.6,30.04,East,82,0.0,0.0,89,0.00,,---,0.00,VWS V14.01,2013-08-29 03:36:00,
2013-08-28 22:40:00,72.8,69.7,30.04,East,82,0.0,0.0,90,0.00,,---,0.00,VWS V14.01,2013-08-29 03:40:00,
2013-08-28 22:45:00,72.7,69.6,30.04,East,82,0.0,0.0,90,0.00,,---,0.00,VWS V14.01,2013-08-29 03:45:00,
2013-08-28 22:50:00,72.5,69.4,30.04,East,82,0.0,0.0,90,0.00,,---,0.00,VWS V14.01,2013-08-29 03:50:00,
2013-08-28 22:55:00,72.2,69.4,30.04,East,82,0.0,0.0,91,0.00,,---,0.00,VWS V14.01,2013-08-29 03:55:00,
2013-08-28 23:00:00,72.0,69.6,30.04,East,82,0.0,0.0,92,0.00,,---,0.00,VWS V14.01,2013-08-29 04:00:00,
2013-08-28 23:05:00,71.8,69.3,30.04,East,82,0.0,0.0,92,0.00,,---,0.00,VWS V14.01,2013-08-29 04:05:00,
2013-08-28 23:06:00,71.8,69.3,30.04,East,82,0.0,0.0,92,0.00,,---,0.00,VWS V14.01,2013-08-29 04:06:00,
2013-08-28 23:10:00,71.9,69.4,30.04,East,82,0.0,0.0,92,0.00,,---,0.00,VWS V14.01,2013-08-29 04:10:00,
2013-08-28 23:15:00,71.9,69.4,30.04,East,82,0.0,0.0,92,0.00,,---,0.00,VWS V14.01,2013-08-29 04:15:00,
2013-08-28 23:20:00,71.9,69.4,30.04,East,82,0.0,0.0,92,0.00,,---,0.00,VWS V14.01,2013-08-29 04:20:00,
2013-08-28 23:25:00,71.8,69.0,30.04,East,82,0.0,0.0,91,0.00,,---,0.00,VWS V14.01,2013-08-29 04:25:00,
2013-08-28 23:30:00,71.5,69.1,30.04,East,82,0.0,0.0,92,0.00,,---,0.00,VWS V14.01,2013-08-29 04:30:00,
2013-08-28 23:35:00,71.2,69.1,30.04,East,82,0.0,0.0,93,0.00,,---,0.00,VWS V14.01,2013-08-29 04:35:00,
2013-08-28 23:36:00,71.2,69.1,30.04,East,82,0.0,0.0,93,0.00,,---,0.00,VWS V14.01,2013-08-29 04:36:00,
2013-08-28 23:40:00,71.0,68.9,30.04,East,82,0.0,0.0,93,0.00,,---,0.00,VWS V14.01,2013-08-29 04:40:00,
2013-08-28 23:45:00,70.8,68.7,30.04,East,82,0.0,0.0,93,0.00,,---,0.00,VWS V14.01,2013-08-29 04:45:00,
2013-08-28 23:50:00,70.6,68.8,30.04,East,82,0.0,0.0,94,0.00,,---,0.00,VWS V14.01,2013-08-29 04:50:00,
2013-08-28 23:55:00,70.5,68.7,30.04,East,82,0.0,0.0,94,0.00,,---,0.00,VWS V14.01,2013-08-29 04:55:00,